sensor_id;sensor_type;location;lat;lon;timestamp;P1;durP1;ratioP1;P2;durP2;ratioP2
8260;SDS011;64115;50.170;8.242;2023-05-10T00:00:07;4.27;;;0.63;;
8260;SDS011;64115;50.170;8.242;2023-05-10T00:02:36;1.13;;;0.27;;
8260;SDS011;64115;50.170;8.242;2023-05-10T00:05:04;0.73;;;0.20;;
8260;SDS011;64115;50.170;8.242;2023-05-10T00:07:31;1.80;;;0.40;;
8260;SDS011;64115;50.170;8.242;2023-05-10T00:09:59;1.23;;;0.30;;
8260;SDS011;64115;50.170;8.242;2023-05-10T00:12:29;1.07;;;0.23;;
8260;SDS011;64115;50.170;8.242;2023-05-10T00:14:56;2.47;;;0.33;;
8260;SDS011;64115;50.170;8.242;2023-05-10T00:17:23;1.00;;;0.27;;
8260;SDS011;64115;50.170;8.242;2023-05-10T00:19:51;0.53;;;0.37;;
8260;SDS011;64115;50.170;8.242;2023-05-10T00:22:18;8.63;;;0.87;;
8260;SDS011;64115;50.170;8.242;2023-05-10T00:24:45;5.53;;;0.50;;
8260;SDS011;64115;50.170;8.242;2023-05-10T00:27:14;14.27;;;1.80;;
8260;SDS011;64115;50.170;8.242;2023-05-10T00:29:44;4.43;;;0.50;;
8260;SDS011;64115;50.170;8.242;2023-05-10T00:32:11;5.20;;;0.67;;
8260;SDS011;64115;50.170;8.242;2023-05-10T00:34:40;0.87;;;0.50;;
8260;SDS011;64115;50.170;8.242;2023-05-10T00:37:07;2.23;;;0.30;;
8260;SDS011;64115;50.170;8.242;2023-05-10T00:39:34;5.57;;;0.93;;
8260;SDS011;64115;50.170;8.242;2023-05-10T00:42:03;2.10;;;0.40;;
8260;SDS011;64115;50.170;8.242;2023-05-10T00:44:33;6.57;;;0.50;;
8260;SDS011;64115;50.170;8.242;2023-05-10T00:47:10;7.43;;;0.73;;
8260;SDS011;64115;50.170;8.242;2023-05-10T00:49:38;2.27;;;0.53;;
8260;SDS011;64115;50.170;8.242;2023-05-10T00:52:07;7.17;;;0.60;;
8260;SDS011;64115;50.170;8.242;2023-05-10T00:54:35;4.90;;;0.77;;
8260;SDS011;64115;50.170;8.242;2023-05-10T00:57:02;0.53;;;0.50;;
8260;SDS011;64115;50.170;8.242;2023-05-10T00:59:30;5.23;;;0.63;;
8260;SDS011;64115;50.170;8.242;2023-05-10T01:01:59;6.13;;;0.53;;
8260;SDS011;64115;50.170;8.242;2023-05-10T01:04:32;5.20;;;0.60;;
8260;SDS011;64115;50.170;8.242;2023-05-10T01:07:01;0.93;;;0.20;;
8260;SDS011;64115;50.170;8.242;2023-05-10T01:12:50;4.27;;;0.67;;
8260;SDS011;64115;50.170;8.242;2023-05-10T01:15:17;1.83;;;1.00;;
8260;SDS011;64115;50.170;8.242;2023-05-10T01:17:52;2.10;;;0.37;;
8260;SDS011;64115;50.170;8.242;2023-05-10T01:20:23;5.30;;;0.60;;
8260;SDS011;64115;50.170;8.242;2023-05-10T01:29:11;5.93;;;0.40;;
8260;SDS011;64115;50.170;8.242;2023-05-10T01:32:08;0.83;;;0.30;;
8260;SDS011;64115;50.170;8.242;2023-05-10T01:34:49;0.30;;;0.30;;
8260;SDS011;64115;50.170;8.242;2023-05-10T01:37:23;4.63;;;0.50;;
8260;SDS011;64115;50.170;8.242;2023-05-10T01:40:05;2.37;;;0.73;;
8260;SDS011;64115;50.170;8.242;2023-05-10T01:42:40;5.90;;;0.70;;
8260;SDS011;64115;50.170;8.242;2023-05-10T01:45:14;3.70;;;0.60;;
8260;SDS011;64115;50.170;8.242;2023-05-10T01:47:53;10.43;;;1.27;;
8260;SDS011;64115;50.170;8.242;2023-05-10T01:50:27;4.33;;;1.03;;
8260;SDS011;64115;50.170;8.242;2023-05-10T01:52:58;3.23;;;0.53;;
8260;SDS011;64115;50.170;8.242;2023-05-10T01:55:29;4.63;;;1.07;;
8260;SDS011;64115;50.170;8.242;2023-05-10T01:58:02;3.43;;;0.60;;
8260;SDS011;64115;50.170;8.242;2023-05-10T02:00:34;1.87;;;0.60;;
8260;SDS011;64115;50.170;8.242;2023-05-10T02:03:07;11.50;;;1.20;;
8260;SDS011;64115;50.170;8.242;2023-05-10T02:05:36;5.20;;;1.10;;
8260;SDS011;64115;50.170;8.242;2023-05-10T02:08:06;2.27;;;0.50;;
8260;SDS011;64115;50.170;8.242;2023-05-10T02:10:34;3.40;;;0.73;;
8260;SDS011;64115;50.170;8.242;2023-05-10T02:13:05;0.73;;;0.60;;
8260;SDS011;64115;50.170;8.242;2023-05-10T02:15:37;3.97;;;0.60;;
8260;SDS011;64115;50.170;8.242;2023-05-10T02:18:08;0.70;;;0.70;;
8260;SDS011;64115;50.170;8.242;2023-05-10T02:20:37;4.27;;;0.70;;
8260;SDS011;64115;50.170;8.242;2023-05-10T02:23:06;2.40;;;0.60;;
8260;SDS011;64115;50.170;8.242;2023-05-10T02:25:35;11.27;;;0.93;;
8260;SDS011;64115;50.170;8.242;2023-05-10T02:28:04;7.37;;;1.43;;
8260;SDS011;64115;50.170;8.242;2023-05-10T02:30:37;4.20;;;0.73;;
8260;SDS011;64115;50.170;8.242;2023-05-10T02:33:05;6.93;;;1.00;;
8260;SDS011;64115;50.170;8.242;2023-05-10T02:35:36;2.87;;;0.80;;
8260;SDS011;64115;50.170;8.242;2023-05-10T02:38:05;1.50;;;0.93;;
8260;SDS011;64115;50.170;8.242;2023-05-10T02:40:35;6.03;;;1.07;;
8260;SDS011;64115;50.170;8.242;2023-05-10T02:43:06;1.17;;;0.93;;
8260;SDS011;64115;50.170;8.242;2023-05-10T02:45:38;1.43;;;0.80;;
8260;SDS011;64115;50.170;8.242;2023-05-10T02:48:10;3.60;;;1.00;;
8260;SDS011;64115;50.170;8.242;2023-05-10T02:50:37;4.60;;;1.23;;
8260;SDS011;64115;50.170;8.242;2023-05-10T02:53:09;7.00;;;1.33;;
8260;SDS011;64115;50.170;8.242;2023-05-10T02:55:40;6.23;;;1.20;;
8260;SDS011;64115;50.170;8.242;2023-05-10T02:58:08;4.63;;;1.40;;
8260;SDS011;64115;50.170;8.242;2023-05-10T03:00:36;7.77;;;1.80;;
8260;SDS011;64115;50.170;8.242;2023-05-10T03:03:05;2.37;;;1.40;;
8260;SDS011;64115;50.170;8.242;2023-05-10T03:05:36;4.87;;;1.60;;
8260;SDS011;64115;50.170;8.242;2023-05-10T03:08:06;2.20;;;1.30;;
8260;SDS011;64115;50.170;8.242;2023-05-10T03:10:38;1.93;;;1.63;;
8260;SDS011;64115;50.170;8.242;2023-05-10T03:13:16;2.23;;;1.93;;
8260;SDS011;64115;50.170;8.242;2023-05-10T03:15:57;1.87;;;1.73;;
8260;SDS011;64115;50.170;8.242;2023-05-10T03:18:33;6.53;;;1.73;;
8260;SDS011;64115;50.170;8.242;2023-05-10T03:21:24;3.43;;;1.60;;
8260;SDS011;64115;50.170;8.242;2023-05-10T03:23:58;1.70;;;1.60;;
8260;SDS011;64115;50.170;8.242;2023-05-10T03:26:32;5.00;;;1.73;;
8260;SDS011;64115;50.170;8.242;2023-05-10T03:29:01;3.30;;;1.80;;
8260;SDS011;64115;50.170;8.242;2023-05-10T03:31:29;2.40;;;2.13;;
8260;SDS011;64115;50.170;8.242;2023-05-10T03:33:59;5.93;;;2.00;;
8260;SDS011;64115;50.170;8.242;2023-05-10T03:36:28;3.57;;;1.90;;
8260;SDS011;64115;50.170;8.242;2023-05-10T03:38:56;3.73;;;1.70;;
8260;SDS011;64115;50.170;8.242;2023-05-10T03:41:25;2.00;;;1.80;;
8260;SDS011;64115;50.170;8.242;2023-05-10T03:43:54;5.00;;;2.00;;
8260;SDS011;64115;50.170;8.242;2023-05-10T03:46:22;2.30;;;1.90;;
8260;SDS011;64115;50.170;8.242;2023-05-10T03:48:49;5.23;;;2.27;;
8260;SDS011;64115;50.170;8.242;2023-05-10T03:51:16;10.37;;;2.10;;
8260;SDS011;64115;50.170;8.242;2023-05-10T03:53:46;17.20;;;3.13;;
8260;SDS011;64115;50.170;8.242;2023-05-10T03:56:16;7.70;;;2.50;;
8260;SDS011;64115;50.170;8.242;2023-05-10T03:58:43;2.30;;;2.20;;
8260;SDS011;64115;50.170;8.242;2023-05-10T04:01:11;3.50;;;2.30;;
8260;SDS011;64115;50.170;8.242;2023-05-10T04:03:38;2.17;;;2.07;;
8260;SDS011;64115;50.170;8.242;2023-05-10T04:06:06;5.27;;;2.50;;
8260;SDS011;64115;50.170;8.242;2023-05-10T04:08:35;10.17;;;2.50;;
8260;SDS011;64115;50.170;8.242;2023-05-10T04:11:08;5.87;;;2.40;;
8260;SDS011;64115;50.170;8.242;2023-05-10T04:13:39;8.33;;;2.30;;
8260;SDS011;64115;50.170;8.242;2023-05-10T04:16:09;8.07;;;2.47;;
8260;SDS011;64115;50.170;8.242;2023-05-10T04:18:37;16.30;;;3.57;;
8260;SDS011;64115;50.170;8.242;2023-05-10T04:21:10;15.97;;;3.10;;
8260;SDS011;64115;50.170;8.242;2023-05-10T04:23:38;9.60;;;3.23;;
8260;SDS011;64115;50.170;8.242;2023-05-10T04:26:05;11.77;;;2.87;;
8260;SDS011;64115;50.170;8.242;2023-05-10T04:28:34;9.93;;;3.60;;
8260;SDS011;64115;50.170;8.242;2023-05-10T04:31:03;18.27;;;3.10;;
8260;SDS011;64115;50.170;8.242;2023-05-10T04:33:32;3.07;;;2.77;;
8260;SDS011;64115;50.170;8.242;2023-05-10T04:36:00;4.80;;;3.30;;
8260;SDS011;64115;50.170;8.242;2023-05-10T04:38:28;5.60;;;3.30;;
8260;SDS011;64115;50.170;8.242;2023-05-10T04:41:03;21.70;;;3.30;;
8260;SDS011;64115;50.170;8.242;2023-05-10T04:43:34;6.33;;;2.90;;
8260;SDS011;64115;50.170;8.242;2023-05-10T04:46:02;8.27;;;3.50;;
8260;SDS011;64115;50.170;8.242;2023-05-10T04:48:29;9.23;;;2.87;;
8260;SDS011;64115;50.170;8.242;2023-05-10T04:50:57;3.10;;;2.80;;
8260;SDS011;64115;50.170;8.242;2023-05-10T04:53:24;4.80;;;2.87;;
8260;SDS011;64115;50.170;8.242;2023-05-10T04:55:51;2.97;;;2.70;;
8260;SDS011;64115;50.170;8.242;2023-05-10T04:58:19;4.43;;;3.00;;
8260;SDS011;64115;50.170;8.242;2023-05-10T05:00:47;3.60;;;2.80;;
8260;SDS011;64115;50.170;8.242;2023-05-10T05:03:15;4.93;;;2.60;;
8260;SDS011;64115;50.170;8.242;2023-05-10T05:05:43;9.00;;;3.27;;
8260;SDS011;64115;50.170;8.242;2023-05-10T05:08:10;13.77;;;3.23;;
8260;SDS011;64115;50.170;8.242;2023-05-10T05:10:38;12.27;;;3.10;;
8260;SDS011;64115;50.170;8.242;2023-05-10T05:13:06;3.23;;;2.93;;
8260;SDS011;64115;50.170;8.242;2023-05-10T05:15:35;3.87;;;3.07;;
8260;SDS011;64115;50.170;8.242;2023-05-10T05:18:04;3.37;;;3.17;;
8260;SDS011;64115;50.170;8.242;2023-05-10T05:20:32;5.23;;;3.30;;
8260;SDS011;64115;50.170;8.242;2023-05-10T05:22:59;6.20;;;3.40;;
8260;SDS011;64115;50.170;8.242;2023-05-10T05:25:26;16.03;;;3.90;;
8260;SDS011;64115;50.170;8.242;2023-05-10T05:27:55;4.30;;;3.30;;
8260;SDS011;64115;50.170;8.242;2023-05-10T05:30:22;7.00;;;3.80;;
8260;SDS011;64115;50.170;8.242;2023-05-10T05:32:50;3.50;;;3.20;;
8260;SDS011;64115;50.170;8.242;2023-05-10T05:35:20;4.73;;;3.17;;
8260;SDS011;64115;50.170;8.242;2023-05-10T05:37:48;12.37;;;3.57;;
8260;SDS011;64115;50.170;8.242;2023-05-10T05:40:16;7.73;;;3.40;;
8260;SDS011;64115;50.170;8.242;2023-05-10T05:42:43;4.77;;;3.03;;
8260;SDS011;64115;50.170;8.242;2023-05-10T05:45:11;8.33;;;3.37;;
8260;SDS011;64115;50.170;8.242;2023-05-10T05:47:39;5.03;;;3.20;;
8260;SDS011;64115;50.170;8.242;2023-05-10T05:50:07;5.10;;;3.07;;
8260;SDS011;64115;50.170;8.242;2023-05-10T05:52:40;6.40;;;3.47;;
8260;SDS011;64115;50.170;8.242;2023-05-10T05:55:09;6.57;;;2.50;;
8260;SDS011;64115;50.170;8.242;2023-05-10T05:57:38;8.93;;;2.63;;
8260;SDS011;64115;50.170;8.242;2023-05-10T06:00:08;2.90;;;2.70;;
8260;SDS011;64115;50.170;8.242;2023-05-10T06:02:36;6.40;;;2.70;;
8260;SDS011;64115;50.170;8.242;2023-05-10T06:05:03;7.23;;;3.17;;
8260;SDS011;64115;50.170;8.242;2023-05-10T06:07:32;10.37;;;2.57;;
8260;SDS011;64115;50.170;8.242;2023-05-10T06:10:08;5.10;;;2.37;;
8260;SDS011;64115;50.170;8.242;2023-05-10T06:12:35;27.20;;;4.33;;
8260;SDS011;64115;50.170;8.242;2023-05-10T06:15:09;4.37;;;2.37;;
8260;SDS011;64115;50.170;8.242;2023-05-10T06:17:52;3.23;;;2.23;;
8260;SDS011;64115;50.170;8.242;2023-05-10T07:36:06;2.90;;;1.90;;
8260;SDS011;64115;50.170;8.242;2023-05-10T07:39:01;3.93;;;2.20;;
8260;SDS011;64115;50.170;8.242;2023-05-10T07:42:02;10.27;;;2.20;;
8260;SDS011;64115;50.170;8.242;2023-05-10T07:45:09;5.60;;;2.00;;
8260;SDS011;64115;50.170;8.242;2023-05-10T07:50:50;3.03;;;2.03;;
8260;SDS011;64115;50.170;8.242;2023-05-10T09:18:46;9.73;;;1.80;;
8260;SDS011;64115;50.170;8.242;2023-05-10T09:27:26;5.50;;;1.60;;
8260;SDS011;64115;50.170;8.242;2023-05-10T09:34:32;2.93;;;1.10;;
8260;SDS011;64115;50.170;8.242;2023-05-10T09:37:06;2.37;;;1.10;;
8260;SDS011;64115;50.170;8.242;2023-05-10T09:42:58;2.97;;;0.90;;
8260;SDS011;64115;50.170;8.242;2023-05-10T09:46:27;3.47;;;0.90;;
8260;SDS011;64115;50.170;8.242;2023-05-10T09:49:02;4.03;;;1.10;;
8260;SDS011;64115;50.170;8.242;2023-05-10T10:17:40;5.90;;;0.60;;
8260;SDS011;64115;50.170;8.242;2023-05-10T10:23:09;7.50;;;1.00;;
8260;SDS011;64115;50.170;8.242;2023-05-10T10:34:36;2.57;;;0.67;;
8260;SDS011;64115;50.170;8.242;2023-05-10T10:56:30;3.30;;;0.73;;
8260;SDS011;64115;50.170;8.242;2023-05-10T10:59:12;17.77;;;1.40;;
8260;SDS011;64115;50.170;8.242;2023-05-10T11:08:44;7.47;;;0.63;;
8260;SDS011;64115;50.170;8.242;2023-05-10T11:11:18;2.77;;;0.60;;
8260;SDS011;64115;50.170;8.242;2023-05-10T11:13:50;4.33;;;1.07;;
8260;SDS011;64115;50.170;8.242;2023-05-10T11:16:18;12.53;;;0.83;;
8260;SDS011;64115;50.170;8.242;2023-05-10T11:19:07;5.20;;;0.60;;
8260;SDS011;64115;50.170;8.242;2023-05-10T12:09:08;3.67;;;0.57;;
8260;SDS011;64115;50.170;8.242;2023-05-10T13:05:42;14.37;;;1.57;;
8260;SDS011;64115;50.170;8.242;2023-05-10T13:08:21;1.90;;;0.60;;
8260;SDS011;64115;50.170;8.242;2023-05-10T13:10:52;1.43;;;0.50;;
8260;SDS011;64115;50.170;8.242;2023-05-10T13:13:22;1.37;;;0.60;;
8260;SDS011;64115;50.170;8.242;2023-05-10T13:15:56;2.27;;;0.43;;
8260;SDS011;64115;50.170;8.242;2023-05-10T13:18:26;2.33;;;0.63;;
8260;SDS011;64115;50.170;8.242;2023-05-10T13:20:53;0.77;;;0.33;;
8260;SDS011;64115;50.170;8.242;2023-05-10T13:23:21;4.97;;;1.03;;
8260;SDS011;64115;50.170;8.242;2023-05-10T13:26:04;1.20;;;0.53;;
8260;SDS011;64115;50.170;8.242;2023-05-10T13:28:44;2.67;;;0.50;;
8260;SDS011;64115;50.170;8.242;2023-05-10T13:34:44;1.47;;;0.30;;
8260;SDS011;64115;50.170;8.242;2023-05-10T13:37:12;0.87;;;0.53;;
8260;SDS011;64115;50.170;8.242;2023-05-10T13:39:41;1.40;;;0.70;;
8260;SDS011;64115;50.170;8.242;2023-05-10T13:42:16;2.67;;;0.40;;
8260;SDS011;64115;50.170;8.242;2023-05-10T14:02:54;3.30;;;0.77;;
8260;SDS011;64115;50.170;8.242;2023-05-10T14:21:19;2.43;;;0.60;;
8260;SDS011;64115;50.170;8.242;2023-05-10T14:31:37;0.77;;;0.40;;
8260;SDS011;64115;50.170;8.242;2023-05-10T14:34:23;3.30;;;0.50;;
8260;SDS011;64115;50.170;8.242;2023-05-10T14:36:53;2.90;;;0.40;;
8260;SDS011;64115;50.170;8.242;2023-05-10T14:39:29;1.07;;;0.53;;
8260;SDS011;64115;50.170;8.242;2023-05-10T16:20:12;0.87;;;0.70;;
8260;SDS011;64115;50.170;8.242;2023-05-10T16:22:42;2.50;;;0.70;;
8260;SDS011;64115;50.170;8.242;2023-05-10T16:26:53;3.17;;;0.90;;
8260;SDS011;64115;50.170;8.242;2023-05-10T16:28:30;1.47;;;0.80;;
8260;SDS011;64115;50.170;8.242;2023-05-10T16:30:59;1.23;;;0.60;;
8260;SDS011;64115;50.170;8.242;2023-05-10T16:49:56;1.63;;;0.80;;
8260;SDS011;64115;50.170;8.242;2023-05-10T16:52:24;2.73;;;0.97;;
8260;SDS011;64115;50.170;8.242;2023-05-10T16:54:57;2.47;;;1.10;;
8260;SDS011;64115;50.170;8.242;2023-05-10T16:57:26;1.50;;;0.77;;
8260;SDS011;64115;50.170;8.242;2023-05-10T16:59:53;0.83;;;0.67;;
8260;SDS011;64115;50.170;8.242;2023-05-10T17:02:20;3.40;;;0.97;;
8260;SDS011;64115;50.170;8.242;2023-05-10T17:05:10;1.03;;;0.80;;
8260;SDS011;64115;50.170;8.242;2023-05-10T17:07:38;2.37;;;1.00;;
8260;SDS011;64115;50.170;8.242;2023-05-10T17:10:17;1.37;;;1.20;;
8260;SDS011;64115;50.170;8.242;2023-05-10T17:13:18;1.40;;;0.90;;
8260;SDS011;64115;50.170;8.242;2023-05-10T17:19:31;2.37;;;1.00;;
8260;SDS011;64115;50.170;8.242;2023-05-10T17:22:15;0.90;;;0.90;;
8260;SDS011;64115;50.170;8.242;2023-05-10T17:25:29;3.33;;;1.03;;
8260;SDS011;64115;50.170;8.242;2023-05-10T17:30:42;1.40;;;0.90;;
8260;SDS011;64115;50.170;8.242;2023-05-10T17:34:04;1.20;;;1.10;;
8260;SDS011;64115;50.170;8.242;2023-05-10T17:36:38;1.03;;;0.77;;
8260;SDS011;64115;50.170;8.242;2023-05-10T17:39:09;1.87;;;1.00;;
8260;SDS011;64115;50.170;8.242;2023-05-10T17:41:55;2.33;;;0.90;;
8260;SDS011;64115;50.170;8.242;2023-05-10T17:44:30;1.13;;;0.90;;
8260;SDS011;64115;50.170;8.242;2023-05-10T17:46:57;2.27;;;1.10;;
8260;SDS011;64115;50.170;8.242;2023-05-10T17:49:29;0.80;;;0.80;;
8260;SDS011;64115;50.170;8.242;2023-05-10T17:51:59;5.47;;;1.13;;
8260;SDS011;64115;50.170;8.242;2023-05-10T18:00:34;2.73;;;1.10;;
8260;SDS011;64115;50.170;8.242;2023-05-10T18:06:04;2.13;;;1.17;;
8260;SDS011;64115;50.170;8.242;2023-05-10T18:08:41;1.53;;;1.13;;
8260;SDS011;64115;50.170;8.242;2023-05-10T18:11:16;1.27;;;1.10;;
8260;SDS011;64115;50.170;8.242;2023-05-10T18:13:49;1.10;;;1.10;;
8260;SDS011;64115;50.170;8.242;2023-05-10T18:16:42;1.20;;;1.10;;
8260;SDS011;64115;50.170;8.242;2023-05-10T18:19:36;0.90;;;0.90;;
8260;SDS011;64115;50.170;8.242;2023-05-10T18:22:03;2.50;;;1.20;;
8260;SDS011;64115;50.170;8.242;2023-05-10T18:24:30;1.00;;;1.00;;
8260;SDS011;64115;50.170;8.242;2023-05-10T18:26:57;2.47;;;1.10;;
8260;SDS011;64115;50.170;8.242;2023-05-10T18:36:08;1.30;;;1.20;;
8260;SDS011;64115;50.170;8.242;2023-05-10T18:38:36;1.83;;;1.40;;
8260;SDS011;64115;50.170;8.242;2023-05-10T18:41:04;1.30;;;1.20;;
8260;SDS011;64115;50.170;8.242;2023-05-10T18:43:34;1.30;;;1.17;;
8260;SDS011;64115;50.170;8.242;2023-05-10T18:46:01;2.07;;;1.50;;
8260;SDS011;64115;50.170;8.242;2023-05-10T18:48:28;2.93;;;1.10;;
8260;SDS011;64115;50.170;8.242;2023-05-10T18:50:55;1.37;;;1.27;;
8260;SDS011;64115;50.170;8.242;2023-05-10T18:53:24;1.23;;;1.17;;
8260;SDS011;64115;50.170;8.242;2023-05-10T18:55:55;1.47;;;1.37;;
8260;SDS011;64115;50.170;8.242;2023-05-10T18:58:23;1.60;;;1.37;;
8260;SDS011;64115;50.170;8.242;2023-05-10T19:00:50;5.23;;;1.73;;
8260;SDS011;64115;50.170;8.242;2023-05-10T19:03:20;2.60;;;1.43;;
8260;SDS011;64115;50.170;8.242;2023-05-10T19:05:47;2.20;;;1.70;;
8260;SDS011;64115;50.170;8.242;2023-05-10T19:08:17;1.60;;;1.50;;
8260;SDS011;64115;50.170;8.242;2023-05-10T19:10:48;1.50;;;1.40;;
8260;SDS011;64115;50.170;8.242;2023-05-10T19:13:15;2.13;;;1.80;;
8260;SDS011;64115;50.170;8.242;2023-05-10T19:15:42;2.60;;;1.73;;
8260;SDS011;64115;50.170;8.242;2023-05-10T19:18:11;1.70;;;1.60;;
8260;SDS011;64115;50.170;8.242;2023-05-10T19:20:41;2.00;;;1.90;;
8260;SDS011;64115;50.170;8.242;2023-05-10T19:23:09;2.07;;;1.87;;
8260;SDS011;64115;50.170;8.242;2023-05-10T19:25:36;1.70;;;1.60;;
8260;SDS011;64115;50.170;8.242;2023-05-10T19:28:06;2.23;;;1.50;;
8260;SDS011;64115;50.170;8.242;2023-05-10T19:30:48;3.87;;;1.80;;
8260;SDS011;64115;50.170;8.242;2023-05-10T19:33:16;1.70;;;1.60;;
8260;SDS011;64115;50.170;8.242;2023-05-10T19:35:44;2.43;;;2.10;;
8260;SDS011;64115;50.170;8.242;2023-05-10T19:38:11;3.03;;;2.00;;
8260;SDS011;64115;50.170;8.242;2023-05-10T19:40:39;2.83;;;2.00;;
8260;SDS011;64115;50.170;8.242;2023-05-10T19:43:17;2.17;;;2.00;;
8260;SDS011;64115;50.170;8.242;2023-05-10T19:45:44;3.20;;;2.10;;
8260;SDS011;64115;50.170;8.242;2023-05-10T19:48:12;1.83;;;1.60;;
8260;SDS011;64115;50.170;8.242;2023-05-10T19:50:39;1.80;;;1.70;;
8260;SDS011;64115;50.170;8.242;2023-05-10T19:53:08;1.77;;;1.67;;
8260;SDS011;64115;50.170;8.242;2023-05-10T19:55:35;1.90;;;1.80;;
8260;SDS011;64115;50.170;8.242;2023-05-10T19:58:02;2.70;;;1.90;;
8260;SDS011;64115;50.170;8.242;2023-05-10T20:00:32;2.47;;;2.27;;
8260;SDS011;64115;50.170;8.242;2023-05-10T20:03:00;3.27;;;2.03;;
8260;SDS011;64115;50.170;8.242;2023-05-10T20:05:29;3.00;;;2.07;;
8260;SDS011;64115;50.170;8.242;2023-05-10T20:07:57;2.37;;;2.20;;
8260;SDS011;64115;50.170;8.242;2023-05-10T20:10:24;2.20;;;2.10;;
8260;SDS011;64115;50.170;8.242;2023-05-10T20:12:51;2.30;;;2.10;;
8260;SDS011;64115;50.170;8.242;2023-05-10T20:15:19;2.10;;;2.00;;
8260;SDS011;64115;50.170;8.242;2023-05-10T20:17:49;2.60;;;2.17;;
8260;SDS011;64115;50.170;8.242;2023-05-10T20:20:17;2.50;;;2.30;;
8260;SDS011;64115;50.170;8.242;2023-05-10T20:22:45;2.00;;;1.90;;
8260;SDS011;64115;50.170;8.242;2023-05-10T20:25:13;2.03;;;1.93;;
8260;SDS011;64115;50.170;8.242;2023-05-10T20:27:41;3.37;;;1.90;;
8260;SDS011;64115;50.170;8.242;2023-05-10T20:30:09;1.97;;;1.60;;
8260;SDS011;64115;50.170;8.242;2023-05-10T20:32:37;7.70;;;6.53;;
8260;SDS011;64115;50.170;8.242;2023-05-10T20:35:10;10.63;;;8.13;;
8260;SDS011;64115;50.170;8.242;2023-05-10T20:37:37;6.30;;;5.73;;
8260;SDS011;64115;50.170;8.242;2023-05-10T20:40:05;6.60;;;5.37;;
8260;SDS011;64115;50.170;8.242;2023-05-10T20:42:33;3.33;;;2.47;;
8260;SDS011;64115;50.170;8.242;2023-05-10T20:45:00;3.23;;;2.80;;
8260;SDS011;64115;50.170;8.242;2023-05-10T20:47:28;4.73;;;2.97;;
8260;SDS011;64115;50.170;8.242;2023-05-10T20:49:56;3.23;;;2.97;;
8260;SDS011;64115;50.170;8.242;2023-05-10T20:52:25;3.00;;;2.80;;
8260;SDS011;64115;50.170;8.242;2023-05-10T20:54:52;2.80;;;2.10;;
8260;SDS011;64115;50.170;8.242;2023-05-10T20:57:19;2.63;;;2.00;;
8260;SDS011;64115;50.170;8.242;2023-05-10T20:59:48;2.13;;;1.93;;
8260;SDS011;64115;50.170;8.242;2023-05-10T21:02:15;2.17;;;1.97;;
8260;SDS011;64115;50.170;8.242;2023-05-10T21:04:42;2.33;;;2.13;;
8260;SDS011;64115;50.170;8.242;2023-05-10T21:07:09;2.10;;;2.00;;
8260;SDS011;64115;50.170;8.242;2023-05-10T21:09:39;1.97;;;1.77;;
8260;SDS011;64115;50.170;8.242;2023-05-10T21:12:07;2.37;;;1.70;;
8260;SDS011;64115;50.170;8.242;2023-05-10T21:14:34;2.97;;;1.50;;
8260;SDS011;64115;50.170;8.242;2023-05-10T21:17:01;2.40;;;1.67;;
8260;SDS011;64115;50.170;8.242;2023-05-10T21:19:29;2.90;;;2.70;;
8260;SDS011;64115;50.170;8.242;2023-05-10T21:21:55;2.80;;;2.60;;
8260;SDS011;64115;50.170;8.242;2023-05-10T21:24:23;2.93;;;2.60;;
8260;SDS011;64115;50.170;8.242;2023-05-10T21:26:52;2.77;;;2.13;;
8260;SDS011;64115;50.170;8.242;2023-05-10T21:29:19;2.07;;;1.97;;
8260;SDS011;64115;50.170;8.242;2023-05-10T21:31:46;1.90;;;1.80;;
8260;SDS011;64115;50.170;8.242;2023-05-10T21:34:13;2.37;;;2.27;;
8260;SDS011;64115;50.170;8.242;2023-05-10T21:36:42;2.37;;;1.70;;
8260;SDS011;64115;50.170;8.242;2023-05-10T21:39:09;2.77;;;1.90;;
8260;SDS011;64115;50.170;8.242;2023-05-10T21:41:36;2.00;;;1.90;;
8260;SDS011;64115;50.170;8.242;2023-05-10T21:44:05;2.60;;;1.40;;
8260;SDS011;64115;50.170;8.242;2023-05-10T21:46:32;1.47;;;1.40;;
8260;SDS011;64115;50.170;8.242;2023-05-10T21:49:00;1.30;;;1.30;;
8260;SDS011;64115;50.170;8.242;2023-05-10T21:51:27;1.50;;;1.40;;
8260;SDS011;64115;50.170;8.242;2023-05-10T21:53:54;1.47;;;1.37;;
8260;SDS011;64115;50.170;8.242;2023-05-10T21:56:21;1.40;;;1.30;;
8260;SDS011;64115;50.170;8.242;2023-05-10T21:58:50;1.50;;;1.33;;
8260;SDS011;64115;50.170;8.242;2023-05-10T22:01:20;1.80;;;1.30;;
8260;SDS011;64115;50.170;8.242;2023-05-10T22:03:47;1.63;;;1.30;;
8260;SDS011;64115;50.170;8.242;2023-05-10T22:06:14;1.37;;;1.37;;
8260;SDS011;64115;50.170;8.242;2023-05-10T22:08:41;1.33;;;1.10;;
8260;SDS011;64115;50.170;8.242;2023-05-10T22:11:08;1.40;;;1.30;;
8260;SDS011;64115;50.170;8.242;2023-05-10T22:13:35;1.40;;;1.30;;
8260;SDS011;64115;50.170;8.242;2023-05-10T22:16:05;2.93;;;1.40;;
8260;SDS011;64115;50.170;8.242;2023-05-10T22:18:34;1.80;;;1.47;;
8260;SDS011;64115;50.170;8.242;2023-05-10T22:21:00;1.30;;;1.20;;
8260;SDS011;64115;50.170;8.242;2023-05-10T22:23:27;2.97;;;1.50;;
8260;SDS011;64115;50.170;8.242;2023-05-10T22:25:57;1.30;;;1.20;;
8260;SDS011;64115;50.170;8.242;2023-05-10T22:28:26;1.50;;;1.40;;
8260;SDS011;64115;50.170;8.242;2023-05-10T22:30:54;2.40;;;1.10;;
8260;SDS011;64115;50.170;8.242;2023-05-10T22:33:21;4.20;;;1.30;;
8260;SDS011;64115;50.170;8.242;2023-05-10T22:35:50;1.40;;;1.30;;
8260;SDS011;64115;50.170;8.242;2023-05-10T22:38:17;3.27;;;1.53;;
8260;SDS011;64115;50.170;8.242;2023-05-10T22:40:45;1.77;;;1.40;;
8260;SDS011;64115;50.170;8.242;2023-05-10T22:43:12;2.10;;;1.53;;
8260;SDS011;64115;50.170;8.242;2023-05-10T22:45:39;3.07;;;1.50;;
8260;SDS011;64115;50.170;8.242;2023-05-10T22:48:06;2.77;;;1.70;;
8260;SDS011;64115;50.170;8.242;2023-05-10T22:50:34;3.37;;;1.70;;
8260;SDS011;64115;50.170;8.242;2023-05-10T22:53:03;6.67;;;1.93;;
8260;SDS011;64115;50.170;8.242;2023-05-10T22:55:30;1.90;;;1.70;;
8260;SDS011;64115;50.170;8.242;2023-05-10T22:57:58;4.10;;;1.70;;
8260;SDS011;64115;50.170;8.242;2023-05-10T23:00:25;2.53;;;1.63;;
8260;SDS011;64115;50.170;8.242;2023-05-10T23:02:52;2.73;;;1.90;;
8260;SDS011;64115;50.170;8.242;2023-05-10T23:05:19;2.10;;;1.60;;
8260;SDS011;64115;50.170;8.242;2023-05-10T23:07:46;5.20;;;1.90;;
8260;SDS011;64115;50.170;8.242;2023-05-10T23:10:18;3.43;;;2.00;;
8260;SDS011;64115;50.170;8.242;2023-05-10T23:12:46;2.20;;;1.80;;
8260;SDS011;64115;50.170;8.242;2023-05-10T23:15:13;1.93;;;1.70;;
8260;SDS011;64115;50.170;8.242;2023-05-10T23:17:41;4.27;;;2.00;;
8260;SDS011;64115;50.170;8.242;2023-05-10T23:20:08;3.00;;;2.13;;
8260;SDS011;64115;50.170;8.242;2023-05-10T23:22:36;5.60;;;1.90;;
8260;SDS011;64115;50.170;8.242;2023-05-10T23:25:04;4.80;;;2.10;;
8260;SDS011;64115;50.170;8.242;2023-05-10T23:27:34;3.47;;;2.10;;
8260;SDS011;64115;50.170;8.242;2023-05-10T23:30:01;3.50;;;2.03;;
8260;SDS011;64115;50.170;8.242;2023-05-10T23:32:28;3.90;;;2.03;;
8260;SDS011;64115;50.170;8.242;2023-05-10T23:34:57;4.27;;;2.20;;
8260;SDS011;64115;50.170;8.242;2023-05-10T23:37:24;2.40;;;1.97;;
8260;SDS011;64115;50.170;8.242;2023-05-10T23:39:51;2.20;;;1.83;;
8260;SDS011;64115;50.170;8.242;2023-05-10T23:42:22;2.93;;;1.63;;
8260;SDS011;64115;50.170;8.242;2023-05-10T23:44:50;4.47;;;2.00;;
8260;SDS011;64115;50.170;8.242;2023-05-10T23:47:18;3.33;;;1.90;;
8260;SDS011;64115;50.170;8.242;2023-05-10T23:49:45;4.57;;;2.10;;
8260;SDS011;64115;50.170;8.242;2023-05-10T23:52:12;2.17;;;1.60;;
8260;SDS011;64115;50.170;8.242;2023-05-10T23:54:40;2.60;;;1.50;;
8260;SDS011;64115;50.170;8.242;2023-05-10T23:57:07;2.93;;;1.60;;
8260;SDS011;64115;50.170;8.242;2023-05-10T23:59:34;1.40;;;1.40;;
